Time;durP1;ratioP1;P1;durP2;ratioP2;P2;SDS_P1;SDS_P2;PMS_P1;PMS_P2;Temp;Humidity;BMP_temperature;BMP_pressure;BME280_temperature;BME280_humidity;BME280_pressure;Samples;Min_cycle;Max_cycle;Signal;HPM_P1;HPM_P2
2022/04/16 00:00:00;;;;;;;14.6;13.3;;;;;;;8.9;100.0;102800;;;;
2022/04/16 00:01:00;;;;;;;15.6;14.1;;;;;;;8.7;100.0;102800;;;;
2022/04/16 00:02:00;;;;;;;15.6;14.1;;;;;;;8.7;100.0;102800;;;;
2022/04/16 00:03:00;;;;;;;15.6;14.1;;;;;;;8.7;100.0;102800;;;;
2022/04/16 00:04:00;;;;;;;15.6;14.1;;;;;;;8.7;100.0;102800;;;;
2022/04/16 00:05:00;;;;;;;15.6;14.1;;;;;;;8.7;100.0;102800;;;;
2022/04/16 00:06:00;;;;;;;15.6;14.1;;;;;;;8.7;100.0;102800;;;;
2022/04/16 00:07:00;;;;;;;15.6;14.1;;;;;;;8.6;100.0;102800;;;;
2022/04/16 00:08:07;;;;;;;15.6;14.1;;;;;;;8.6;100.0;102800;;;;
2022/04/16 00:09:00;;;;;;;15.6;14.1;;;;;;;8.5;100.0;102800;;;;
2022/04/16 00:10:00;;;;;;;15.6;14.1;;;;;;;8.5;100.0;102800;;;;
2022/04/16 00:11:00;;;;;;;15.6;14.1;;;;;;;8.6;100.0;102800;;;;
2022/04/16 00:12:00;;;;;;;15.6;14.1;;;;;;;8.6;100.0;102800;;;;
2022/04/16 00:13:00;;;;;;;15.6;14.1;;;;;;;8.5;100.0;102800;;;;
2022/04/16 00:14:00;;;;;;;15.6;14.1;;;;;;;8.5;100.0;102800;;;;
2022/04/16 00:15:00;;;;;;;15.6;14.1;;;;;;;8.6;100.0;102800;;;;
2022/04/16 00:16:00;;;;;;;15.6;14.1;;;;;;;8.6;100.0;102800;;;;
2022/04/16 00:17:00;;;;;;;15.6;14.1;;;;;;;8.7;100.0;102800;;;;
2022/04/16 00:18:00;;;;;;;15.6;14.1;;;;;;;8.7;100.0;102800;;;;
2022/04/16 00:19:00;;;;;;;15.6;14.1;;;;;;;8.4;100.0;102800;;;;
2022/04/16 00:20:02;;;;;;;15.6;14.1;;;;;;;8.4;100.0;102800;;;;
2022/04/16 00:21:04;;;;;;;16.7;15.2;;;;;;;8.4;100.0;102800;;;;
2022/04/16 00:22:00;;;;;;;16.7;15.2;;;;;;;8.4;100.0;102800;;;;
2022/04/16 00:23:00;;;;;;;16.7;15.2;;;;;;;8.4;100.0;102800;;;;
2022/04/16 00:24:00;;;;;;;16.7;15.2;;;;;;;8.4;100.0;102800;;;;
2022/04/16 00:25:01;;;;;;;16.7;15.2;;;;;;;8.4;100.0;102800;;;;
2022/04/16 00:26:02;;;;;;;16.7;15.2;;;;;;;8.4;100.0;102800;;;;
2022/04/16 00:27:00;;;;;;;16.7;15.2;;;;;;;8.4;100.0;102810;;;;
2022/04/16 00:28:00;;;;;;;16.7;15.2;;;;;;;8.4;100.0;102810;;;;
2022/04/16 00:29:00;;;;;;;16.7;15.2;;;;;;;8.3;100.0;102810;;;;
2022/04/16 00:30:01;;;;;;;16.7;15.2;;;;;;;8.3;100.0;102810;;;;
2022/04/16 00:31:00;;;;;;;16.7;15.2;;;;;;;8.3;100.0;102800;;;;
2022/04/16 00:32:00;;;;;;;16.7;15.2;;;;;;;8.3;100.0;102800;;;;
2022/04/16 00:33:00;;;;;;;16.7;15.2;;;;;;;8.4;100.0;102800;;;;
2022/04/16 00:34:01;;;;;;;16.7;15.2;;;;;;;8.4;100.0;102800;;;;
2022/04/16 00:35:02;;;;;;;16.7;15.2;;;;;;;8.2;100.0;102800;;;;
2022/04/16 00:36:00;;;;;;;16.7;15.2;;;;;;;8.2;100.0;102800;;;;
2022/04/16 00:37:00;;;;;;;16.7;15.2;;;;;;;8.1;100.0;102800;;;;
2022/04/16 00:38:00;;;;;;;16.7;15.2;;;;;;;8.1;100.0;102800;;;;
2022/04/16 00:39:00;;;;;;;16.7;15.2;;;;;;;8.2;100.0;102810;;;;
2022/04/16 00:40:00;;;;;;;16.7;15.2;;;;;;;8.2;100.0;102810;;;;
2022/04/16 00:41:02;;;;;;;18.1;16.5;;;;;;;8.1;100.0;102810;;;;
2022/04/16 00:42:00;;;;;;;18.1;16.5;;;;;;;8.1;100.0;102810;;;;
2022/04/16 00:43:00;;;;;;;18.1;16.5;;;;;;;8.1;100.0;102810;;;;
2022/04/16 00:44:00;;;;;;;18.1;16.5;;;;;;;8.1;100.0;102810;;;;
2022/04/16 00:45:00;;;;;;;18.1;16.5;;;;;;;8.1;100.0;102810;;;;
2022/04/16 00:46:00;;;;;;;18.1;16.5;;;;;;;8.1;100.0;102810;;;;
2022/04/16 00:47:00;;;;;;;18.1;16.5;;;;;;;8.0;100.0;102810;;;;
2022/04/16 00:48:00;;;;;;;18.1;16.5;;;;;;;8.0;100.0;102810;;;;
2022/04/16 00:49:00;;;;;;;18.1;16.5;;;;;;;8.0;100.0;102810;;;;
2022/04/16 00:50:00;;;;;;;18.1;16.5;;;;;;;8.0;100.0;102810;;;;
2022/04/16 00:51:00;;;;;;;18.1;16.5;;;;;;;8.1;100.0;102810;;;;
2022/04/16 00:52:01;;;;;;;18.1;16.5;;;;;;;8.1;100.0;102810;;;;
2022/04/16 00:53:00;;;;;;;18.1;16.5;;;;;;;8.0;100.0;102800;;;;
2022/04/16 00:54:00;;;;;;;18.1;16.5;;;;;;;8.0;100.0;102800;;;;
2022/04/16 00:55:00;;;;;;;18.1;16.5;;;;;;;7.9;100.0;102800;;;;
2022/04/16 00:56:03;;;;;;;18.1;16.5;;;;;;;7.9;100.0;102800;;;;
2022/04/16 00:57:00;;;;;;;18.1;16.5;;;;;;;7.9;100.0;102800;;;;
2022/04/16 00:58:00;;;;;;;18.1;16.5;;;;;;;7.9;100.0;102800;;;;
2022/04/16 00:59:01;;;;;;;18.1;16.5;;;;;;;7.8;100.0;102800;;;;
2022/04/16 01:00:00;;;;;;;18.1;16.5;;;;;;;7.8;100.0;102800;;;;
2022/04/16 01:01:00;;;;;;;19.2;17.5;;;;;;;7.9;100.0;102800;;;;
2022/04/16 01:02:00;;;;;;;19.2;17.5;;;;;;;7.9;100.0;102800;;;;
2022/04/16 01:03:00;;;;;;;19.2;17.5;;;;;;;7.9;100.0;102800;;;;
2022/04/16 01:04:00;;;;;;;19.2;17.5;;;;;;;7.9;100.0;102800;;;;
2022/04/16 01:05:00;;;;;;;19.2;17.5;;;;;;;7.9;100.0;102800;;;;
2022/04/16 01:06:00;;;;;;;19.2;17.5;;;;;;;7.9;100.0;102800;;;;
2022/04/16 01:07:00;;;;;;;19.2;17.5;;;;;;;7.9;100.0;102800;;;;
2022/04/16 01:08:02;;;;;;;19.2;17.5;;;;;;;7.9;100.0;102800;;;;
2022/04/16 01:09:00;;;;;;;19.2;17.5;;;;;;;7.9;100.0;102800;;;;
2022/04/16 01:10:00;;;;;;;19.2;17.5;;;;;;;7.9;100.0;102800;;;;
2022/04/16 01:11:00;;;;;;;19.2;17.5;;;;;;;7.9;100.0;102800;;;;
2022/04/16 01:12:00;;;;;;;19.2;17.5;;;;;;;7.9;100.0;102800;;;;
2022/04/16 01:13:01;;;;;;;19.2;17.5;;;;;;;7.8;100.0;102800;;;;
2022/04/16 01:14:00;;;;;;;19.2;17.5;;;;;;;7.8;100.0;102800;;;;
2022/04/16 01:15:00;;;;;;;19.2;17.5;;;;;;;7.9;100.0;102800;;;;
2022/04/16 01:16:00;;;;;;;19.2;17.5;;;;;;;7.9;100.0;102800;;;;
2022/04/16 01:17:00;;;;;;;19.2;17.5;;;;;;;7.9;100.0;102800;;;;
2022/04/16 01:18:03;;;;;;;19.2;17.5;;;;;;;7.9;100.0;102800;;;;
2022/04/16 01:19:01;;;;;;;19.2;17.5;;;;;;;7.9;100.0;102800;;;;
2022/04/16 01:20:01;;;;;;;19.2;17.5;;;;;;;7.9;100.0;102800;;;;
2022/04/16 01:21:01;;;;;;;20.5;18.7;;;;;;;7.9;100.0;102810;;;;
2022/04/16 01:22:00;;;;;;;20.5;18.7;;;;;;;7.9;100.0;102810;;;;
2022/04/16 01:23:01;;;;;;;20.5;18.7;;;;;;;7.9;100.0;102810;;;;
2022/04/16 01:24:00;;;;;;;20.5;18.7;;;;;;;7.9;100.0;102810;;;;
2022/04/16 01:25:00;;;;;;;20.5;18.7;;;;;;;7.9;100.0;102810;;;;
2022/04/16 01:26:00;;;;;;;20.5;18.7;;;;;;;7.9;100.0;102810;;;;
2022/04/16 01:27:00;;;;;;;20.5;18.7;;;;;;;7.9;100.0;102810;;;;
2022/04/16 01:28:01;;;;;;;20.5;18.7;;;;;;;7.9;100.0;102810;;;;
2022/04/16 01:29:01;;;;;;;20.5;18.7;;;;;;;7.9;100.0;102820;;;;
2022/04/16 01:30:00;;;;;;;20.5;18.7;;;;;;;7.9;100.0;102820;;;;
2022/04/16 01:31:00;;;;;;;20.5;18.7;;;;;;;7.9;100.0;102810;;;;
2022/04/16 01:32:00;;;;;;;20.5;18.7;;;;;;;7.9;100.0;102810;;;;
2022/04/16 01:33:01;;;;;;;20.5;18.7;;;;;;;7.9;100.0;102820;;;;
2022/04/16 01:34:01;;;;;;;20.5;18.7;;;;;;;7.9;100.0;102820;;;;
2022/04/16 01:35:00;;;;;;;20.5;18.7;;;;;;;7.8;100.0;102820;;;;
2022/04/16 01:36:00;;;;;;;20.5;18.7;;;;;;;7.8;100.0;102820;;;;
2022/04/16 01:37:02;;;;;;;20.5;18.7;;;;;;;7.6;100.0;102820;;;;
2022/04/16 01:38:03;;;;;;;20.5;18.7;;;;;;;7.6;100.0;102820;;;;
2022/04/16 01:39:00;;;;;;;20.5;18.7;;;;;;;7.6;100.0;102820;;;;
2022/04/16 01:40:00;;;;;;;20.5;18.7;;;;;;;7.6;100.0;102820;;;;
2022/04/16 01:41:02;;;;;;;22.4;20.3;;;;;;;7.6;100.0;102820;;;;
2022/04/16 01:42:00;;;;;;;22.4;20.3;;;;;;;7.6;100.0;102820;;;;
2022/04/16 01:43:00;;;;;;;22.4;20.3;;;;;;;7.8;100.0;102820;;;;
2022/04/16 01:44:00;;;;;;;22.4;20.3;;;;;;;7.8;100.0;102820;;;;
2022/04/16 01:45:00;;;;;;;22.4;20.3;;;;;;;7.8;100.0;102830;;;;
2022/04/16 01:46:04;;;;;;;22.4;20.3;;;;;;;7.8;100.0;102830;;;;
2022/04/16 01:47:00;;;;;;;22.4;20.3;;;;;;;7.8;100.0;102830;;;;
2022/04/16 01:48:00;;;;;;;22.4;20.3;;;;;;;7.8;100.0;102830;;;;
2022/04/16 01:49:01;;;;;;;22.4;20.3;;;;;;;7.9;100.0;102830;;;;
2022/04/16 01:50:00;;;;;;;22.4;20.3;;;;;;;7.9;100.0;102830;;;;
2022/04/16 01:51:00;;;;;;;22.4;20.3;;;;;;;7.6;100.0;102830;;;;
2022/04/16 01:52:00;;;;;;;22.4;20.3;;;;;;;7.6;100.0;102830;;;;
2022/04/16 01:53:00;;;;;;;22.4;20.3;;;;;;;7.6;100.0;102830;;;;
2022/04/16 01:54:00;;;;;;;22.4;20.3;;;;;;;7.6;100.0;102830;;;;
2022/04/16 01:55:00;;;;;;;22.4;20.3;;;;;;;7.6;100.0;102830;;;;
2022/04/16 01:56:00;;;;;;;22.4;20.3;;;;;;;7.6;100.0;102830;;;;
2022/04/16 01:57:00;;;;;;;22.4;20.3;;;;;;;7.7;100.0;102830;;;;
2022/04/16 01:58:00;;;;;;;22.4;20.3;;;;;;;7.7;100.0;102830;;;;
2022/04/16 01:59:01;;;;;;;22.4;20.3;;;;;;;7.6;100.0;102830;;;;
2022/04/16 02:00:00;;;;;;;22.4;20.3;;;;;;;7.6;100.0;102830;;;;
2022/04/16 02:01:00;;;;;;;23.1;21.0;;;;;;;7.6;100.0;102830;;;;
2022/04/16 02:02:00;;;;;;;23.1;21.0;;;;;;;7.6;100.0;102830;;;;
2022/04/16 02:03:00;;;;;;;23.1;21.0;;;;;;;7.5;100.0;102830;;;;
2022/04/16 02:04:00;;;;;;;23.1;21.0;;;;;;;7.5;100.0;102830;;;;
2022/04/16 02:05:00;;;;;;;23.1;21.0;;;;;;;7.6;100.0;102830;;;;
2022/04/16 02:06:00;;;;;;;23.1;21.0;;;;;;;7.6;100.0;102830;;;;
2022/04/16 02:07:00;;;;;;;23.1;21.0;;;;;;;7.6;100.0;102830;;;;
2022/04/16 02:08:00;;;;;;;23.1;21.0;;;;;;;7.6;100.0;102830;;;;
2022/04/16 02:09:01;;;;;;;23.1;21.0;;;;;;;7.6;100.0;102830;;;;
2022/04/16 02:10:00;;;;;;;23.1;21.0;;;;;;;7.6;100.0;102830;;;;
2022/04/16 02:11:00;;;;;;;23.1;21.0;;;;;;;7.5;100.0;102820;;;;
2022/04/16 02:12:00;;;;;;;23.1;21.0;;;;;;;7.5;100.0;102820;;;;
2022/04/16 02:13:00;;;;;;;23.1;21.0;;;;;;;7.5;100.0;102830;;;;
2022/04/16 02:14:02;;;;;;;23.1;21.0;;;;;;;7.5;100.0;102830;;;;
2022/04/16 02:15:00;;;;;;;23.1;21.0;;;;;;;7.6;100.0;102820;;;;
2022/04/16 02:16:00;;;;;;;23.1;21.0;;;;;;;7.6;100.0;102820;;;;
2022/04/16 02:17:00;;;;;;;23.1;21.0;;;;;;;7.6;100.0;102820;;;;
2022/04/16 02:18:00;;;;;;;23.1;21.0;;;;;;;7.6;100.0;102820;;;;
2022/04/16 02:19:00;;;;;;;23.1;21.0;;;;;;;7.6;100.0;102820;;;;
2022/04/16 02:20:00;;;;;;;23.1;21.0;;;;;;;7.6;100.0;102820;;;;
2022/04/16 02:21:00;;;;;;;23.7;21.4;;;;;;;7.4;100.0;102820;;;;
2022/04/16 02:22:00;;;;;;;23.7;21.4;;;;;;;7.4;100.0;102820;;;;
2022/04/16 02:23:00;;;;;;;23.7;21.4;;;;;;;7.4;100.0;102830;;;;
2022/04/16 02:24:00;;;;;;;23.7;21.4;;;;;;;7.4;100.0;102830;;;;
2022/04/16 02:25:03;;;;;;;23.7;21.4;;;;;;;7.3;100.0;102820;;;;
2022/04/16 02:26:01;;;;;;;23.7;21.4;;;;;;;7.3;100.0;102820;;;;
2022/04/16 02:27:00;;;;;;;23.7;21.4;;;;;;;7.3;100.0;102820;;;;
2022/04/16 02:28:00;;;;;;;23.7;21.4;;;;;;;7.3;100.0;102820;;;;
2022/04/16 02:29:00;;;;;;;23.7;21.4;;;;;;;7.2;100.0;102830;;;;
2022/04/16 02:30:00;;;;;;;23.7;21.4;;;;;;;7.2;100.0;102830;;;;
2022/04/16 02:31:00;;;;;;;23.7;21.4;;;;;;;7.2;100.0;102820;;;;
2022/04/16 02:32:02;;;;;;;23.7;21.4;;;;;;;7.2;100.0;102820;;;;
2022/04/16 02:33:00;;;;;;;23.7;21.4;;;;;;;7.2;100.0;102820;;;;
2022/04/16 02:34:00;;;;;;;23.7;21.4;;;;;;;7.2;100.0;102820;;;;
2022/04/16 02:35:00;;;;;;;23.7;21.4;;;;;;;7.3;100.0;102820;;;;
2022/04/16 02:36:00;;;;;;;23.7;21.4;;;;;;;7.3;100.0;102820;;;;
2022/04/16 02:37:00;;;;;;;23.7;21.4;;;;;;;7.2;100.0;102830;;;;
2022/04/16 02:38:00;;;;;;;23.7;21.4;;;;;;;7.2;100.0;102830;;;;
2022/04/16 02:39:00;;;;;;;23.7;21.4;;;;;;;7.2;100.0;102830;;;;
2022/04/16 02:40:00;;;;;;;23.7;21.4;;;;;;;7.2;100.0;102830;;;;
2022/04/16 02:41:00;;;;;;;25.0;22.6;;;;;;;7.1;100.0;102830;;;;
2022/04/16 02:42:00;;;;;;;25.0;22.6;;;;;;;7.1;100.0;102830;;;;
2022/04/16 02:43:00;;;;;;;25.0;22.6;;;;;;;7.1;100.0;102830;;;;
2022/04/16 02:44:00;;;;;;;25.0;22.6;;;;;;;7.1;100.0;102830;;;;
2022/04/16 02:47:08;;;;;;;25.0;22.6;;;;;;;7.2;100.0;102830;;;;
2022/04/16 02:48:00;;;;;;;25.0;22.6;;;;;;;7.2;100.0;102830;;;;
2022/04/16 02:49:01;;;;;;;25.0;22.6;;;;;;;7.2;100.0;102830;;;;
2022/04/16 02:50:00;;;;;;;25.0;22.6;;;;;;;7.2;100.0;102830;;;;
2022/04/16 02:51:00;;;;;;;25.0;22.6;;;;;;;7.2;100.0;102830;;;;
2022/04/16 02:52:00;;;;;;;25.0;22.6;;;;;;;7.2;100.0;102830;;;;
2022/04/16 02:53:00;;;;;;;25.0;22.6;;;;;;;7.1;100.0;102840;;;;
2022/04/16 02:54:00;;;;;;;25.0;22.6;;;;;;;7.1;100.0;102840;;;;
2022/04/16 02:55:00;;;;;;;25.0;22.6;;;;;;;6.9;100.0;102850;;;;
2022/04/16 02:56:00;;;;;;;25.0;22.6;;;;;;;6.9;100.0;102850;;;;
2022/04/16 02:57:00;;;;;;;25.0;22.6;;;;;;;6.9;100.0;102840;;;;
2022/04/16 02:58:00;;;;;;;25.0;22.6;;;;;;;6.9;100.0;102840;;;;
2022/04/16 02:59:00;;;;;;;25.0;22.6;;;;;;;7.0;100.0;102850;;;;
2022/04/16 03:00:06;;;;;;;25.0;22.6;;;;;;;7.0;100.0;102850;;;;
2022/04/16 03:01:00;;;;;;;26.5;24.0;;;;;;;7.1;100.0;102850;;;;
2022/04/16 03:02:00;;;;;;;26.5;24.0;;;;;;;7.1;100.0;102850;;;;
2022/04/16 03:03:00;;;;;;;26.5;24.0;;;;;;;7.0;100.0;102850;;;;
2022/04/16 03:04:00;;;;;;;26.5;24.0;;;;;;;7.0;100.0;102850;;;;
2022/04/16 03:05:00;;;;;;;26.5;24.0;;;;;;;7.0;100.0;102850;;;;
2022/04/16 03:06:00;;;;;;;26.5;24.0;;;;;;;7.0;100.0;102850;;;;
2022/04/16 03:07:01;;;;;;;26.5;24.0;;;;;;;7.0;100.0;102850;;;;
2022/04/16 03:08:00;;;;;;;26.5;24.0;;;;;;;7.0;100.0;102850;;;;
2022/04/16 03:09:01;;;;;;;26.5;24.0;;;;;;;7.0;100.0;102860;;;;
2022/04/16 03:10:02;;;;;;;26.5;24.0;;;;;;;7.0;100.0;102860;;;;
2022/04/16 03:11:00;;;;;;;26.5;24.0;;;;;;;6.9;100.0;102850;;;;
2022/04/16 03:12:00;;;;;;;26.5;24.0;;;;;;;6.9;100.0;102850;;;;
2022/04/16 03:13:00;;;;;;;26.5;24.0;;;;;;;7.0;100.0;102850;;;;
2022/04/16 03:17:31;;;;;;;26.5;24.0;;;;;;;7.0;100.0;102850;;;;
2022/04/16 03:18:00;;;;;;;26.5;24.0;;;;;;;6.8;100.0;102850;;;;
2022/04/16 03:19:00;;;;;;;26.5;24.0;;;;;;;6.8;100.0;102860;;;;
2022/04/16 03:20:04;;;;;;;26.5;24.0;;;;;;;6.8;100.0;102860;;;;
2022/04/16 03:21:01;;;;;;;28.2;25.3;;;;;;;6.9;100.0;102850;;;;
2022/04/16 03:22:00;;;;;;;28.2;25.3;;;;;;;6.9;100.0;102850;;;;
2022/04/16 03:23:00;;;;;;;28.2;25.3;;;;;;;6.8;100.0;102860;;;;
2022/04/16 03:24:00;;;;;;;28.2;25.3;;;;;;;6.8;100.0;102860;;;;
2022/04/16 03:25:03;;;;;;;28.2;25.3;;;;;;;6.8;100.0;102850;;;;
2022/04/16 03:26:00;;;;;;;28.2;25.3;;;;;;;6.8;100.0;102850;;;;
2022/04/16 03:27:00;;;;;;;28.2;25.3;;;;;;;6.8;100.0;102850;;;;
2022/04/16 03:28:00;;;;;;;28.2;25.3;;;;;;;6.8;100.0;102850;;;;
2022/04/16 03:29:00;;;;;;;28.2;25.3;;;;;;;6.8;100.0;102860;;;;
2022/04/16 03:30:00;;;;;;;28.2;25.3;;;;;;;6.8;100.0;102860;;;;
2022/04/16 03:31:00;;;;;;;28.2;25.3;;;;;;;6.9;100.0;102860;;;;
2022/04/16 03:32:00;;;;;;;28.2;25.3;;;;;;;6.9;100.0;102860;;;;
2022/04/16 03:33:00;;;;;;;28.2;25.3;;;;;;;6.8;100.0;102850;;;;
2022/04/16 03:34:00;;;;;;;28.2;25.3;;;;;;;6.8;100.0;102850;;;;
2022/04/16 03:35:00;;;;;;;28.2;25.3;;;;;;;6.8;100.0;102860;;;;
2022/04/16 03:36:00;;;;;;;28.2;25.3;;;;;;;6.8;100.0;102860;;;;
2022/04/16 03:37:00;;;;;;;28.2;25.3;;;;;;;6.8;100.0;102860;;;;
2022/04/16 03:38:00;;;;;;;28.2;25.3;;;;;;;6.8;100.0;102860;;;;
2022/04/16 03:39:00;;;;;;;28.2;25.3;;;;;;;6.8;100.0;102860;;;;
2022/04/16 03:40:00;;;;;;;29.1;26.1;;;;;;;6.8;100.0;102860;;;;
2022/04/16 03:41:00;;;;;;;29.1;26.1;;;;;;;6.7;100.0;102860;;;;
2022/04/16 03:42:00;;;;;;;29.1;26.1;;;;;;;6.7;100.0;102860;;;;
2022/04/16 03:43:01;;;;;;;29.1;26.1;;;;;;;6.7;100.0;102860;;;;
2022/04/16 03:44:00;;;;;;;29.1;26.1;;;;;;;6.7;100.0;102860;;;;
2022/04/16 03:45:00;;;;;;;29.1;26.1;;;;;;;6.7;100.0;102860;;;;
2022/04/16 03:46:00;;;;;;;29.1;26.1;;;;;;;6.7;100.0;102860;;;;
2022/04/16 03:47:00;;;;;;;29.1;26.1;;;;;;;6.6;100.0;102860;;;;
2022/04/16 03:48:01;;;;;;;29.1;26.1;;;;;;;6.6;100.0;102860;;;;
2022/04/16 03:49:00;;;;;;;29.1;26.1;;;;;;;6.7;100.0;102860;;;;
2022/04/16 03:50:00;;;;;;;29.1;26.1;;;;;;;6.7;100.0;102860;;;;
2022/04/16 03:51:00;;;;;;;29.1;26.1;;;;;;;6.8;100.0;102860;;;;
2022/04/16 03:52:00;;;;;;;29.1;26.1;;;;;;;6.8;100.0;102860;;;;
2022/04/16 03:53:00;;;;;;;29.1;26.1;;;;;;;6.7;100.0;102860;;;;
2022/04/16 03:59:59;;;;;;;29.1;26.1;;;;;;;6.7;100.0;102860;;;;
2022/04/16 04:00:00;;;;;;;29.6;26.7;;;;;;;6.7;100.0;102860;;;;
2022/04/16 04:01:00;;;;;;;29.6;26.7;;;;;;;6.7;100.0;102870;;;;
2022/04/16 04:02:00;;;;;;;29.6;26.7;;;;;;;6.7;100.0;102870;;;;
2022/04/16 04:03:00;;;;;;;29.6;26.7;;;;;;;6.6;100.0;102860;;;;
2022/04/16 04:04:00;;;;;;;29.6;26.7;;;;;;;6.6;100.0;102860;;;;
2022/04/16 04:05:00;;;;;;;29.6;26.7;;;;;;;6.6;100.0;102870;;;;
2022/04/16 04:06:01;;;;;;;29.6;26.7;;;;;;;6.6;100.0;102870;;;;
2022/04/16 04:07:00;;;;;;;29.6;26.7;;;;;;;6.5;100.0;102860;;;;
2022/04/16 04:08:00;;;;;;;29.6;26.7;;;;;;;6.5;100.0;102860;;;;
2022/04/16 04:09:00;;;;;;;29.6;26.7;;;;;;;6.6;100.0;102860;;;;
2022/04/16 04:10:00;;;;;;;29.6;26.7;;;;;;;6.6;100.0;102860;;;;
2022/04/16 04:11:00;;;;;;;29.6;26.7;;;;;;;6.5;100.0;102870;;;;
2022/04/16 04:12:00;;;;;;;29.6;26.7;;;;;;;6.5;100.0;102870;;;;
2022/04/16 04:13:00;;;;;;;29.6;26.7;;;;;;;6.5;100.0;102870;;;;
2022/04/16 04:14:00;;;;;;;29.6;26.7;;;;;;;6.5;100.0;102870;;;;
2022/04/16 04:15:00;;;;;;;29.6;26.7;;;;;;;6.5;100.0;102870;;;;
2022/04/16 04:16:00;;;;;;;29.6;26.7;;;;;;;6.5;100.0;102870;;;;
2022/04/16 04:17:00;;;;;;;29.6;26.7;;;;;;;6.6;100.0;102870;;;;
2022/04/16 04:18:00;;;;;;;29.6;26.7;;;;;;;6.6;100.0;102870;;;;
2022/04/16 04:19:00;;;;;;;29.6;26.7;;;;;;;6.4;100.0;102870;;;;
2022/04/16 04:20:00;;;;;;;31.4;28.0;;;;;;;6.4;100.0;102870;;;;
2022/04/16 04:21:00;;;;;;;31.4;28.0;;;;;;;6.6;100.0;102880;;;;
2022/04/16 04:22:00;;;;;;;31.4;28.0;;;;;;;6.6;100.0;102880;;;;
2022/04/16 04:23:00;;;;;;;31.4;28.0;;;;;;;6.5;100.0;102870;;;;
2022/04/16 04:24:00;;;;;;;31.4;28.0;;;;;;;6.5;100.0;102870;;;;
2022/04/16 04:25:00;;;;;;;31.4;28.0;;;;;;;6.5;100.0;102880;;;;
2022/04/16 04:26:00;;;;;;;31.4;28.0;;;;;;;6.5;100.0;102880;;;;
2022/04/16 04:27:00;;;;;;;31.4;28.0;;;;;;;6.4;100.0;102880;;;;
2022/04/16 04:28:00;;;;;;;31.4;28.0;;;;;;;6.4;100.0;102880;;;;
2022/04/16 04:29:00;;;;;;;31.4;28.0;;;;;;;6.4;100.0;102880;;;;
2022/04/16 04:30:01;;;;;;;31.4;28.0;;;;;;;6.4;100.0;102880;;;;
2022/04/16 04:31:00;;;;;;;31.4;28.0;;;;;;;6.3;100.0;102880;;;;
2022/04/16 04:32:00;;;;;;;31.4;28.0;;;;;;;6.3;100.0;102880;;;;
2022/04/16 04:33:00;;;;;;;31.4;28.0;;;;;;;6.3;100.0;102880;;;;
2022/04/16 04:34:00;;;;;;;31.4;28.0;;;;;;;6.3;100.0;102880;;;;
2022/04/16 04:35:00;;;;;;;31.4;28.0;;;;;;;6.3;100.0;102880;;;;
2022/04/16 04:36:00;;;;;;;31.4;28.0;;;;;;;6.3;100.0;102880;;;;
2022/04/16 04:37:00;;;;;;;31.4;28.0;;;;;;;6.4;100.0;102890;;;;
2022/04/16 04:38:00;;;;;;;31.4;28.0;;;;;;;6.4;100.0;102890;;;;
2022/04/16 04:39:00;;;;;;;31.4;28.0;;;;;;;6.4;100.0;102890;;;;
2022/04/16 04:40:00;;;;;;;33.3;29.9;;;;;;;6.4;100.0;102890;;;;
2022/04/16 04:41:00;;;;;;;33.3;29.9;;;;;;;6.3;100.0;102880;;;;
2022/04/16 04:42:00;;;;;;;33.3;29.9;;;;;;;6.3;100.0;102880;;;;
2022/04/16 04:43:00;;;;;;;33.3;29.9;;;;;;;6.3;100.0;102880;;;;
2022/04/16 04:44:00;;;;;;;33.3;29.9;;;;;;;6.3;100.0;102880;;;;
2022/04/16 04:45:06;;;;;;;33.3;29.9;;;;;;;6.4;100.0;102890;;;;
2022/04/16 04:46:00;;;;;;;33.3;29.9;;;;;;;6.4;100.0;102890;;;;
2022/04/16 04:47:00;;;;;;;33.3;29.9;;;;;;;6.3;100.0;102890;;;;
2022/04/16 04:48:00;;;;;;;33.3;29.9;;;;;;;6.3;100.0;102890;;;;
2022/04/16 04:49:00;;;;;;;33.3;29.9;;;;;;;6.2;100.0;102890;;;;
2022/04/16 04:50:00;;;;;;;33.3;29.9;;;;;;;6.2;100.0;102890;;;;
2022/04/16 04:51:00;;;;;;;33.3;29.9;;;;;;;6.2;100.0;102900;;;;
2022/04/16 04:52:00;;;;;;;33.3;29.9;;;;;;;6.2;100.0;102900;;;;
2022/04/16 04:53:00;;;;;;;33.3;29.9;;;;;;;6.2;100.0;102900;;;;
2022/04/16 04:54:00;;;;;;;33.3;29.9;;;;;;;6.2;100.0;102900;;;;
2022/04/16 04:55:00;;;;;;;33.3;29.9;;;;;;;6.2;100.0;102900;;;;
2022/04/16 04:56:00;;;;;;;33.3;29.9;;;;;;;6.2;100.0;102900;;;;
2022/04/16 04:57:00;;;;;;;33.3;29.9;;;;;;;6.2;100.0;102900;;;;
2022/04/16 04:58:00;;;;;;;33.3;29.9;;;;;;;6.2;100.0;102900;;;;
2022/04/16 04:59:00;;;;;;;33.3;29.9;;;;;;;6.2;100.0;102900;;;;
2022/04/16 05:00:00;;;;;;;34.8;31.1;;;;;;;6.2;100.0;102900;;;;
2022/04/16 05:01:00;;;;;;;34.8;31.1;;;;;;;6.2;100.0;102910;;;;
2022/04/16 05:02:00;;;;;;;34.8;31.1;;;;;;;6.2;100.0;102910;;;;
2022/04/16 05:03:00;;;;;;;34.8;31.1;;;;;;;6.2;100.0;102900;;;;
2022/04/16 05:04:00;;;;;;;34.8;31.1;;;;;;;6.2;100.0;102900;;;;
2022/04/16 05:05:00;;;;;;;34.8;31.1;;;;;;;6.3;100.0;102910;;;;
2022/04/16 05:06:00;;;;;;;34.8;31.1;;;;;;;6.3;100.0;102910;;;;
2022/04/16 05:07:01;;;;;;;34.8;31.1;;;;;;;6.3;100.0;102910;;;;
2022/04/16 05:08:00;;;;;;;34.8;31.1;;;;;;;6.3;100.0;102910;;;;
2022/04/16 05:09:00;;;;;;;34.8;31.1;;;;;;;6.2;100.0;102920;;;;
2022/04/16 05:10:00;;;;;;;34.8;31.1;;;;;;;6.2;100.0;102920;;;;
2022/04/16 05:11:00;;;;;;;34.8;31.1;;;;;;;6.3;100.0;102920;;;;
2022/04/16 05:12:00;;;;;;;34.8;31.1;;;;;;;6.3;100.0;102920;;;;
2022/04/16 05:13:00;;;;;;;34.8;31.1;;;;;;;6.4;100.0;102920;;;;
2022/04/16 05:14:00;;;;;;;34.8;31.1;;;;;;;6.4;100.0;102920;;;;
2022/04/16 05:15:00;;;;;;;34.8;31.1;;;;;;;6.4;100.0;102920;;;;
2022/04/16 05:16:05;;;;;;;34.8;31.1;;;;;;;6.4;100.0;102920;;;;
2022/04/16 05:17:00;;;;;;;34.8;31.1;;;;;;;6.5;100.0;102920;;;;
2022/04/16 05:18:00;;;;;;;34.8;31.1;;;;;;;6.5;100.0;102920;;;;
2022/04/16 05:19:00;;;;;;;34.8;31.1;;;;;;;6.5;100.0;102930;;;;
2022/04/16 05:20:03;;;;;;;36.7;32.8;;;;;;;6.5;100.0;102930;;;;
2022/04/16 05:21:00;;;;;;;36.7;32.8;;;;;;;6.5;100.0;102930;;;;
2022/04/16 05:22:00;;;;;;;36.7;32.8;;;;;;;6.5;100.0;102930;;;;
2022/04/16 05:23:00;;;;;;;36.7;32.8;;;;;;;6.6;100.0;102930;;;;
2022/04/16 05:24:00;;;;;;;36.7;32.8;;;;;;;6.6;100.0;102930;;;;
2022/04/16 05:25:00;;;;;;;36.7;32.8;;;;;;;6.6;100.0;102930;;;;
2022/04/16 05:26:00;;;;;;;36.7;32.8;;;;;;;6.6;100.0;102930;;;;
2022/04/16 05:27:00;;;;;;;36.7;32.8;;;;;;;6.6;100.0;102930;;;;
2022/04/16 05:28:00;;;;;;;36.7;32.8;;;;;;;6.6;100.0;102930;;;;
2022/04/16 05:29:00;;;;;;;36.7;32.8;;;;;;;6.7;100.0;102930;;;;
2022/04/16 05:30:12;;;;;;;36.7;32.8;;;;;;;6.7;100.0;102930;;;;
2022/04/16 05:31:01;;;;;;;36.7;32.8;;;;;;;6.7;100.0;102930;;;;
2022/04/16 05:32:00;;;;;;;36.7;32.8;;;;;;;6.7;100.0;102930;;;;
2022/04/16 05:33:05;;;;;;;36.7;32.8;;;;;;;6.5;100.0;102940;;;;
2022/04/16 05:35:00;;;;;;;36.7;32.8;;;;;;;6.6;100.0;102940;;;;
2022/04/16 05:36:00;;;;;;;36.7;32.8;;;;;;;6.6;100.0;102940;;;;
2022/04/16 05:37:00;;;;;;;36.7;32.8;;;;;;;6.7;100.0;102940;;;;
2022/04/16 05:38:02;;;;;;;36.7;32.8;;;;;;;6.7;100.0;102940;;;;
2022/04/16 05:39:00;;;;;;;36.7;32.8;;;;;;;6.6;100.0;102950;;;;
2022/04/16 05:40:00;;;;;;;38.7;34.6;;;;;;;6.6;100.0;102950;;;;
2022/04/16 05:41:00;;;;;;;38.7;34.6;;;;;;;6.7;100.0;102940;;;;
2022/04/16 05:42:00;;;;;;;38.7;34.6;;;;;;;6.7;100.0;102940;;;;
2022/04/16 05:43:00;;;;;;;38.7;34.6;;;;;;;6.8;100.0;102950;;;;
2022/04/16 05:44:00;;;;;;;38.7;34.6;;;;;;;6.8;100.0;102950;;;;
2022/04/16 05:45:01;;;;;;;38.7;34.6;;;;;;;6.8;100.0;102950;;;;
2022/04/16 05:46:00;;;;;;;38.7;34.6;;;;;;;6.8;100.0;102950;;;;
2022/04/16 05:47:00;;;;;;;38.7;34.6;;;;;;;6.8;100.0;102950;;;;
2022/04/16 05:48:00;;;;;;;38.7;34.6;;;;;;;6.8;100.0;102950;;;;
2022/04/16 05:49:00;;;;;;;38.7;34.6;;;;;;;6.8;100.0;102950;;;;
2022/04/16 05:50:00;;;;;;;38.7;34.6;;;;;;;6.8;100.0;102950;;;;
2022/04/16 05:51:00;;;;;;;38.7;34.6;;;;;;;6.8;100.0;102950;;;;
2022/04/16 05:52:00;;;;;;;38.7;34.6;;;;;;;6.8;100.0;102950;;;;
2022/04/16 05:53:00;;;;;;;38.7;34.6;;;;;;;6.8;100.0;102950;;;;
2022/04/16 05:54:01;;;;;;;38.7;34.6;;;;;;;6.8;100.0;102950;;;;
2022/04/16 05:55:01;;;;;;;38.7;34.6;;;;;;;6.9;100.0;102960;;;;
2022/04/16 05:56:00;;;;;;;38.7;34.6;;;;;;;6.9;100.0;102960;;;;
2022/04/16 05:57:00;;;;;;;38.7;34.6;;;;;;;7.0;100.0;102960;;;;
2022/04/16 05:58:00;;;;;;;38.7;34.6;;;;;;;7.0;100.0;102960;;;;
2022/04/16 05:59:00;;;;;;;38.7;34.6;;;;;;;7.0;100.0;102960;;;;
2022/04/16 06:00:00;;;;;;;38.4;34.4;;;;;;;7.0;100.0;102960;;;;
2022/04/16 06:01:00;;;;;;;38.4;34.4;;;;;;;7.1;100.0;102960;;;;
2022/04/16 06:02:00;;;;;;;38.4;34.4;;;;;;;7.1;100.0;102960;;;;
2022/04/16 06:03:00;;;;;;;38.4;34.4;;;;;;;7.1;100.0;102960;;;;
2022/04/16 06:04:00;;;;;;;38.4;34.4;;;;;;;7.1;100.0;102960;;;;
2022/04/16 06:05:00;;;;;;;38.4;34.4;;;;;;;7.2;100.0;102970;;;;
2022/04/16 06:06:01;;;;;;;38.4;34.4;;;;;;;7.2;100.0;102970;;;;
2022/04/16 06:07:00;;;;;;;38.4;34.4;;;;;;;7.2;100.0;102970;;;;
2022/04/16 06:08:00;;;;;;;38.4;34.4;;;;;;;7.2;100.0;102970;;;;
2022/04/16 06:09:00;;;;;;;38.4;34.4;;;;;;;7.3;100.0;102970;;;;
2022/04/16 06:10:00;;;;;;;38.4;34.4;;;;;;;7.3;100.0;102970;;;;
2022/04/16 06:11:00;;;;;;;38.4;34.4;;;;;;;7.3;100.0;102980;;;;
2022/04/16 06:12:01;;;;;;;38.4;34.4;;;;;;;7.3;100.0;102980;;;;
2022/04/16 06:13:00;;;;;;;38.4;34.4;;;;;;;7.4;100.0;102980;;;;
2022/04/16 06:14:00;;;;;;;38.4;34.4;;;;;;;7.4;100.0;102980;;;;
2022/04/16 06:15:00;;;;;;;38.4;34.4;;;;;;;7.5;100.0;102980;;;;
2022/04/16 06:16:00;;;;;;;38.4;34.4;;;;;;;7.5;100.0;102980;;;;
2022/04/16 06:17:00;;;;;;;38.4;34.4;;;;;;;7.6;100.0;102990;;;;
2022/04/16 06:18:00;;;;;;;38.4;34.4;;;;;;;7.6;100.0;102990;;;;
2022/04/16 06:19:00;;;;;;;38.4;34.4;;;;;;;7.5;100.0;102990;;;;
2022/04/16 06:20:00;;;;;;;38.0;34.1;;;;;;;7.5;100.0;102990;;;;
2022/04/16 06:21:00;;;;;;;38.0;34.1;;;;;;;7.6;100.0;102990;;;;
2022/04/16 06:22:00;;;;;;;38.0;34.1;;;;;;;7.6;100.0;102990;;;;
2022/04/16 06:23:00;;;;;;;38.0;34.1;;;;;;;7.7;100.0;102990;;;;
2022/04/16 06:24:00;;;;;;;38.0;34.1;;;;;;;7.7;100.0;102990;;;;
2022/04/16 06:25:08;;;;;;;38.0;34.1;;;;;;;7.8;100.0;102990;;;;
2022/04/16 06:26:00;;;;;;;38.0;34.1;;;;;;;7.8;100.0;102990;;;;
2022/04/16 06:27:00;;;;;;;38.0;34.1;;;;;;;7.9;100.0;103000;;;;